Time;durP1;ratioP1;P1;durP2;ratioP2;P2;SDS_P1;SDS_P2;PMS_P1;PMS_P2;Temp;Humidity;BMP_temperature;BMP_pressure;BME280_temperature;BME280_humidity;BME280_pressure;Samples;Min_cycle;Max_cycle;Signal;HPM_P1;HPM_P2
2022/05/08 00:00:16;;;;;;;4.13;2.17;;;11.10;98.00;;;;;;5012167;28;20489;-65
2022/05/08 00:02:44;;;;;;;4.63;2.30;;;11.10;98.00;;;;;;5027434;28;20465;-65
2022/05/08 00:05:12;;;;;;;5.03;2.50;;;11.20;98.00;;;;;;5012180;28;20478;-65
2022/05/08 00:07:39;;;;;;;4.47;2.53;;;11.30;98.00;;;;;;5012430;28;20453;-65
2022/05/08 00:10:07;;;;;;;3.83;2.70;;;11.20;98.00;;;;;;5012411;28;20941;-65
2022/05/08 00:12:35;;;;;;;4.07;1.70;;;11.10;98.00;;;;;;5012539;28;20465;-65
2022/05/08 00:15:05;;;;;;;2.63;2.27;;;11.00;98.00;;;;;;5012411;28;20456;-66
2022/05/08 00:17:34;;;;;;;1.50;1.40;;;10.90;98.00;;;;;;5011990;28;20465;-66
2022/05/08 00:20:03;;;;;;;4.27;2.90;;;10.90;98.00;;;;;;5012029;28;20995;-66
2022/05/08 00:22:30;;;;;;;2.37;1.90;;;10.80;98.00;;;;;;5011946;28;20808;-66
2022/05/08 00:24:57;;;;;;;2.80;2.13;;;10.80;98.00;;;;;;5012350;28;20993;-66
2022/05/08 00:27:25;;;;;;;4.40;2.40;;;10.80;98.00;;;;;;5011924;28;20453;-66
2022/05/08 00:29:52;;;;;;;2.80;2.07;;;10.70;98.00;;;;;;5011910;28;20549;-66
2022/05/08 00:32:21;;;;;;;2.90;2.27;;;10.60;98.00;;;;;;5012279;28;20534;-66
2022/05/08 00:34:48;;;;;;;3.53;2.07;;;10.50;98.00;;;;;;5011970;28;20453;-66
2022/05/08 00:37:15;;;;;;;4.50;2.53;;;10.40;98.00;;;;;;5012039;28;20456;-66
2022/05/08 00:39:43;;;;;;;1.80;1.53;;;10.40;98.00;;;;;;5011838;28;20485;-66
2022/05/08 00:42:11;;;;;;;2.73;2.33;;;10.50;98.00;;;;;;5011884;28;20565;-66
2022/05/08 00:44:38;;;;;;;3.57;2.20;;;10.60;98.00;;;;;;5011846;28;20465;-66
2022/05/08 00:47:05;;;;;;;2.43;2.07;;;10.70;98.00;;;;;;5011803;28;20474;-66
2022/05/08 00:49:34;;;;;;;2.00;1.90;;;10.70;98.00;;;;;;5011828;28;20474;-66
2022/05/08 00:52:02;;;;;;;4.23;2.20;;;10.80;98.00;;;;;;5011983;28;20507;-66
2022/05/08 00:54:29;;;;;;;4.30;2.70;;;10.70;98.00;;;;;;5011455;28;20454;-66
2022/05/08 00:56:57;;;;;;;4.10;2.40;;;10.70;98.00;;;;;;5011847;28;20477;-66
2022/05/08 00:59:25;;;;;;;3.20;2.27;;;10.60;98.00;;;;;;5011784;28;20527;-66
2022/05/08 01:01:52;;;;;;;2.30;2.07;;;10.60;98.00;;;;;;5015660;28;20456;-66
2022/05/08 01:04:19;;;;;;;3.00;2.07;;;10.40;98.00;;;;;;5015354;28;20460;-66
2022/05/08 01:06:47;;;;;;;3.03;2.20;;;10.40;98.00;;;;;;5015813;28;20462;-67
2022/05/08 01:09:15;;;;;;;2.70;1.93;;;10.60;98.00;;;;;;5015289;28;20467;-66
2022/05/08 01:11:43;;;;;;;5.10;2.03;;;10.60;98.00;;;;;;5015351;28;20882;-66
2022/05/08 01:14:10;;;;;;;2.53;2.17;;;10.60;98.00;;;;;;5030152;28;20974;-66
2022/05/08 01:16:37;;;;;;;3.53;2.73;;;10.50;98.00;;;;;;5015106;28;20456;-66
2022/05/08 01:19:04;;;;;;;2.07;1.90;;;10.40;98.00;;;;;;5014817;28;20492;-66
2022/05/08 01:21:39;;;;;;;2.33;2.13;;;10.40;98.00;;;;;;5015055;28;20486;-66
2022/05/08 01:24:07;;;;;;;2.87;1.77;;;10.40;98.00;;;;;;5014886;28;20463;-66
2022/05/08 01:26:34;;;;;;;3.20;1.93;;;10.40;98.00;;;;;;5014912;28;20459;-66
2022/05/08 01:29:02;;;;;;;3.00;2.27;;;10.50;98.00;;;;;;5014744;28;20460;-66
2022/05/08 01:31:33;;;;;;;1.93;1.80;;;10.50;98.00;;;;;;5014872;28;20473;-66
2022/05/08 01:34:00;;;;;;;3.00;2.47;;;10.60;98.00;;;;;;5029378;28;20920;-67
2022/05/08 01:36:27;;;;;;;2.10;1.70;;;10.60;98.00;;;;;;5014671;28;20448;-67
2022/05/08 01:38:57;;;;;;;1.73;1.57;;;10.60;98.00;;;;;;5014694;28;20857;-67
2022/05/08 01:41:24;;;;;;;2.57;1.80;;;10.60;98.00;;;;;;5014736;28;20467;-67
2022/05/08 01:43:54;;;;;;;2.60;1.87;;;10.40;98.00;;;;;;5014909;28;20458;-67
2022/05/08 01:46:21;;;;;;;3.47;2.33;;;10.40;98.00;;;;;;5014799;28;20540;-67
2022/05/08 01:48:48;;;;;;;5.10;2.60;;;10.30;98.00;;;;;;5014532;28;20464;-67
2022/05/08 01:51:16;;;;;;;1.73;1.50;;;10.20;98.00;;;;;;5014579;28;20491;-67
2022/05/08 01:53:45;;;;;;;2.27;2.03;;;10.10;98.00;;;;;;5014585;28;20464;-66
2022/05/08 01:56:14;;;;;;;3.77;2.37;;;10.20;98.00;;;;;;5014450;28;20543;-67
2022/05/08 01:58:41;;;;;;;1.67;1.57;;;10.20;98.00;;;;;;5014388;28;20466;-67
2022/05/08 02:01:10;;;;;;;4.20;2.50;;;10.10;98.00;;;;;;5029616;28;20468;-67
2022/05/08 02:03:37;;;;;;;3.93;2.00;;;10.20;98.00;;;;;;5014187;28;20520;-67
2022/05/08 02:06:04;;;;;;;2.80;2.13;;;10.20;98.00;;;;;;5014699;28;20460;-67
2022/05/08 02:08:32;;;;;;;2.80;2.20;;;10.10;98.00;;;;;;5012704;28;20510;-67
2022/05/08 02:10:59;;;;;;;2.70;2.20;;;10.10;98.00;;;;;;5014011;28;20510;-67
2022/05/08 02:13:28;;;;;;;2.97;2.30;;;10.10;98.00;;;;;;5028670;28;20541;-67
2022/05/08 02:15:59;;;;;;;5.40;3.07;;;10.00;98.00;;;;;;5014149;28;20463;-67
2022/05/08 02:18:26;;;;;;;2.97;2.20;;;9.90;98.00;;;;;;5013653;28;20514;-67
2022/05/08 02:20:53;;;;;;;2.00;1.80;;;9.90;98.00;;;;;;5014116;28;20484;-67
2022/05/08 02:23:20;;;;;;;2.90;2.20;;;9.80;98.00;;;;;;5014014;28;20813;-67
2022/05/08 02:25:47;;;;;;;6.13;2.50;;;9.80;98.00;;;;;;5028887;28;20471;-67
2022/05/08 02:28:14;;;;;;;2.83;1.83;;;9.80;98.00;;;;;;5013719;28;20455;-67
2022/05/08 02:30:43;;;;;;;5.53;2.40;;;9.90;98.00;;;;;;5013511;28;20460;-67
2022/05/08 02:33:10;;;;;;;3.57;2.30;;;9.90;98.00;;;;;;5013567;28;20456;-67
2022/05/08 02:35:37;;;;;;;4.27;2.53;;;9.90;98.00;;;;;;5013649;28;20532;-67
2022/05/08 02:38:04;;;;;;;2.27;1.97;;;9.80;98.00;;;;;;5013757;28;20461;-67
2022/05/08 02:40:31;;;;;;;2.10;1.90;;;9.80;98.00;;;;;;5013413;28;20499;-67
2022/05/08 02:42:58;;;;;;;1.70;1.30;;;9.80;98.00;;;;;;5013603;28;20477;-67
2022/05/08 02:45:25;;;;;;;4.13;2.33;;;9.60;98.00;;;;;;5013372;28;20467;-67
2022/05/08 02:47:53;;;;;;;3.73;2.00;;;9.60;98.00;;;;;;5013526;28;20520;-67
2022/05/08 02:50:21;;;;;;;3.17;2.00;;;9.60;98.00;;;;;;5013324;28;20463;-67
2022/05/08 02:52:48;;;;;;;2.73;1.80;;;9.60;98.00;;;;;;5013675;28;20468;-67
2022/05/08 03:00:46;;;;;;;2.40;1.73;;;9.50;98.00;;;;;;5013497;28;21176;-67
2022/05/08 03:03:17;;;;;;;3.27;1.90;;;9.50;98.00;;;;;;5013555;28;20466;-67
2022/05/08 03:05:47;;;;;;;1.43;1.37;;;9.40;98.00;;;;;;5013319;28;20471;-67
2022/05/08 03:08:17;;;;;;;1.77;1.70;;;9.50;98.00;;;;;;5013020;28;20460;-67
2022/05/08 03:13:33;;;;;;;3.10;1.93;;;9.70;98.00;;;;;;5012902;28;20930;-67
2022/05/08 03:16:00;;;;;;;3.10;2.00;;;9.60;98.00;;;;;;5013206;28;20471;-67
2022/05/08 03:18:29;;;;;;;3.77;2.20;;;9.70;98.00;;;;;;5012665;28;20463;-67
2022/05/08 03:20:57;;;;;;;4.47;2.60;;;9.50;98.00;;;;;;5012671;28;20487;-67
2022/05/08 03:23:24;;;;;;;3.93;2.17;;;9.50;98.00;;;;;;5012683;28;20836;-67
2022/05/08 03:25:52;;;;;;;2.70;2.37;;;9.20;98.00;;;;;;5012657;28;20459;-67
2022/05/08 03:28:20;;;;;;;3.53;2.50;;;9.20;98.00;;;;;;5012727;28;20459;-66
2022/05/08 03:30:47;;;;;;;1.77;1.63;;;9.20;98.00;;;;;;5012666;28;20791;-67
2022/05/08 03:33:15;;;;;;;1.67;1.63;;;9.20;98.00;;;;;;5012662;28;20456;-67
2022/05/08 03:35:43;;;;;;;3.43;2.43;;;9.10;98.00;;;;;;5012564;28;20467;-67
2022/05/08 03:38:11;;;;;;;2.60;1.93;;;9.10;98.00;;;;;;5012618;28;20463;-67
2022/05/08 03:40:38;;;;;;;3.80;2.20;;;9.00;98.00;;;;;;5012385;28;20498;-67
2022/05/08 03:43:06;;;;;;;2.23;1.90;;;9.10;98.00;;;;;;5012628;28;20818;-67
2022/05/08 03:45:33;;;;;;;1.93;1.90;;;9.10;98.00;;;;;;5012399;28;20482;-67
2022/05/08 03:48:01;;;;;;;2.47;2.27;;;8.90;98.00;;;;;;5012481;28;20462;-67
2022/05/08 03:50:29;;;;;;;4.73;3.03;;;8.90;98.00;;;;;;5012466;28;20482;-67
2022/05/08 03:52:57;;;;;;;2.50;1.87;;;9.00;98.00;;;;;;5012701;28;20491;-67
2022/05/08 03:55:24;;;;;;;7.00;2.43;;;8.90;98.00;;;;;;5012552;28;20467;-67
2022/05/08 03:57:52;;;;;;;2.70;2.13;;;8.90;98.00;;;;;;5012706;28;20455;-67
2022/05/08 04:00:20;;;;;;;6.10;3.00;;;8.90;98.00;;;;;;5012312;28;21146;-67
2022/05/08 04:02:50;;;;;;;2.23;1.60;;;8.90;98.00;;;;;;5027778;28;21011;-67
2022/05/08 04:05:17;;;;;;;2.00;1.70;;;8.90;98.00;;;;;;5012535;28;20990;-67
2022/05/08 04:07:45;;;;;;;5.90;2.93;;;8.80;98.00;;;;;;5012526;28;20539;-67
2022/05/08 04:10:14;;;;;;;43.17;3.40;;;8.80;98.00;;;;;;5012399;28;20834;-67
2022/05/08 04:12:44;;;;;;;1.70;1.60;;;8.90;98.00;;;;;;5012278;28;20455;-67
2022/05/08 04:17:53;;;;;;;2.17;1.87;;;8.80;98.00;;;;;;5011975;28;20464;-67
2022/05/08 04:20:21;;;;;;;2.90;2.30;;;8.80;98.00;;;;;;5011843;28;21007;-67
2022/05/08 04:25:30;;;;;;;3.53;1.90;;;8.90;98.00;;;;;;4989062;28;20463;-67
2022/05/08 04:27:58;;;;;;;3.77;2.20;;;8.90;98.00;;;;;;5012096;28;20506;-67
2022/05/08 04:30:26;;;;;;;1.80;1.70;;;8.90;98.00;;;;;;5012048;28;20521;-67
2022/05/08 04:32:53;;;;;;;2.53;2.17;;;8.90;98.00;;;;;;5011844;28;20455;-66
2022/05/08 04:35:20;;;;;;;3.03;2.00;;;8.90;98.00;;;;;;5013471;28;20594;-66
2022/05/08 04:37:47;;;;;;;3.33;2.27;;;8.90;98.00;;;;;;5015716;28;20944;-67
2022/05/08 04:40:14;;;;;;;2.30;2.00;;;9.00;98.00;;;;;;5015710;28;20491;-67
2022/05/08 04:42:43;;;;;;;2.33;1.87;;;9.10;98.00;;;;;;5015777;28;20493;-67
2022/05/08 04:45:15;;;;;;;1.57;1.50;;;9.10;98.00;;;;;;5015617;28;20459;-67
2022/05/08 04:47:42;;;;;;;2.73;1.73;;;9.20;98.00;;;;;;5015900;28;20470;-67
2022/05/08 04:50:10;;;;;;;2.63;2.03;;;9.30;98.00;;;;;;5015680;28;20460;-67
2022/05/08 04:52:37;;;;;;;1.60;1.60;;;9.50;98.00;;;;;;5016012;28;20459;-67
2022/05/08 04:55:04;;;;;;;1.70;1.50;;;9.50;98.00;;;;;;5015624;28;20451;-67
2022/05/08 04:57:31;;;;;;;2.23;2.03;;;9.60;98.00;;;;;;5015625;28;20507;-67
2022/05/08 05:00:00;;;;;;;4.00;2.53;;;9.50;98.00;;;;;;5030824;28;20479;-67
2022/05/08 05:02:28;;;;;;;5.10;2.57;;;9.50;98.00;;;;;;5015694;28;20502;-67
2022/05/08 05:04:55;;;;;;;6.67;2.57;;;9.60;98.00;;;;;;5015653;28;20455;-67
2022/05/08 05:07:22;;;;;;;2.03;1.60;;;9.70;98.00;;;;;;5015657;28;20452;-67
2022/05/08 05:09:50;;;;;;;3.93;2.33;;;9.80;98.00;;;;;;5015505;28;20491;-67
2022/05/08 05:12:17;;;;;;;2.13;2.00;;;9.80;98.00;;;;;;5015377;28;20470;-67
2022/05/08 05:14:44;;;;;;;2.00;1.90;;;10.00;98.00;;;;;;5015255;28;20464;-66
2022/05/08 05:17:13;;;;;;;2.70;2.10;;;10.10;98.00;;;;;;5015131;28;20455;-67
2022/05/08 05:19:40;;;;;;;3.60;2.57;;;10.00;98.00;;;;;;5015045;28;20546;-67
2022/05/08 05:22:07;;;;;;;2.90;2.10;;;10.10;98.00;;;;;;5015023;28;20487;-67
2022/05/08 05:24:34;;;;;;;2.17;1.63;;;10.30;98.00;;;;;;5015009;28;20459;-67
2022/05/08 05:27:01;;;;;;;3.10;2.00;;;10.40;98.00;;;;;;5014776;28;21003;-67
2022/05/08 05:29:28;;;;;;;2.70;2.50;;;10.50;98.00;;;;;;5014890;28;20926;-67
2022/05/08 05:31:55;;;;;;;2.40;1.87;;;10.70;98.00;;;;;;5014873;28;20559;-67
2022/05/08 05:34:24;;;;;;;1.80;1.70;;;10.70;98.00;;;;;;5013450;28;20454;-67
2022/05/08 05:36:51;;;;;;;2.87;2.00;;;10.80;98.00;;;;;;5014917;28;20464;-67
2022/05/08 05:39:18;;;;;;;3.97;2.10;;;10.90;98.00;;;;;;5014540;28;20461;-67
2022/05/08 05:41:45;;;;;;;4.87;3.30;;;10.90;98.00;;;;;;5014461;28;21013;-67
2022/05/08 05:44:12;;;;;;;4.07;2.70;;;10.90;98.00;;;;;;5014533;28;20455;-67
2022/05/08 05:49:27;;;;;;;2.23;1.73;;;11.00;98.00;;;;;;5014672;28;20442;-67
2022/05/08 05:51:54;;;;;;;2.40;2.20;;;11.10;98.00;;;;;;5014589;28;20505;-67
2022/05/08 05:54:22;;;;;;;2.17;1.90;;;11.20;98.00;;;;;;5014384;28;20463;-67
2022/05/08 05:56:49;;;;;;;3.23;2.77;;;11.20;98.00;;;;;;5014463;28;20553;-67
2022/05/08 05:59:16;;;;;;;2.53;1.67;;;11.20;98.00;;;;;;5014373;28;20846;-67
2022/05/08 06:01:44;;;;;;;2.20;2.00;;;11.30;98.00;;;;;;5013095;28;20476;-67
2022/05/08 06:04:14;;;;;;;2.40;1.97;;;11.20;98.00;;;;;;5014600;28;20474;-67
2022/05/08 06:06:42;;;;;;;5.73;2.97;;;11.30;98.00;;;;;;5014586;28;20458;-67
2022/05/08 06:09:09;;;;;;;2.63;2.43;;;11.30;98.00;;;;;;5014460;28;20517;-67
2022/05/08 06:11:36;;;;;;;2.13;2.00;;;11.30;98.00;;;;;;5014369;28;20506;-66
2022/05/08 06:14:04;;;;;;;3.13;2.13;;;11.40;98.00;;;;;;5014307;28;20470;-66
2022/05/08 06:16:31;;;;;;;3.80;2.40;;;11.30;98.00;;;;;;5014157;28;20463;-67
2022/05/08 06:18:59;;;;;;;2.27;1.93;;;11.40;98.00;;;;;;5014122;28;20457;-67
2022/05/08 06:21:26;;;;;;;2.50;2.17;;;11.40;98.00;;;;;;5013772;28;21066;-66
2022/05/08 06:23:55;;;;;;;3.50;2.60;;;11.50;98.00;;;;;;5012517;28;20511;-66
2022/05/08 06:26:22;;;;;;;4.60;2.17;;;11.50;98.00;;;;;;5014000;28;20488;-67
2022/05/08 06:28:49;;;;;;;2.60;2.13;;;11.40;98.00;;;;;;5013864;28;20897;-67
2022/05/08 06:31:17;;;;;;;5.77;3.43;;;11.40;98.00;;;;;;5013646;28;20547;-67
2022/05/08 06:33:44;;;;;;;2.23;1.77;;;11.40;98.00;;;;;;5013748;28;20452;-67
2022/05/08 06:36:12;;;;;;;3.07;2.00;;;11.30;98.00;;;;;;5013473;28;20466;-66
2022/05/08 06:38:40;;;;;;;3.00;2.23;;;11.50;98.00;;;;;;5012809;28;20460;-66
2022/05/08 06:41:08;;;;;;;5.30;2.60;;;11.60;98.00;;;;;;5012484;28;20497;-66
2022/05/08 06:43:36;;;;;;;2.90;2.07;;;11.80;98.00;;;;;;5012854;28;20947;-66
2022/05/08 06:46:03;;;;;;;3.27;2.20;;;11.80;98.00;;;;;;5012796;28;20498;-66
2022/05/08 06:48:30;;;;;;;3.43;2.23;;;12.00;98.00;;;;;;5013324;28;20457;-66
2022/05/08 06:50:57;;;;;;;5.10;2.30;;;12.10;98.00;;;;;;5013323;28;20456;-66
2022/05/08 06:53:25;;;;;;;2.37;2.20;;;12.40;98.00;;;;;;5013330;28;20457;-67
2022/05/08 06:55:52;;;;;;;5.87;3.07;;;12.40;98.00;;;;;;5013382;28;21086;-67
2022/05/08 06:58:21;;;;;;;2.17;1.53;;;12.50;98.00;;;;;;5012954;28;20523;-66
2022/05/08 07:03:33;;;;;;;3.67;3.00;;;12.80;98.00;;;;;;5013415;28;20810;-66
2022/05/08 07:06:00;;;;;;;3.50;2.37;;;12.90;98.00;;;;;;5013110;28;20462;-66
2022/05/08 07:08:27;;;;;;;4.53;2.60;;;12.90;98.00;;;;;;5012233;28;20499;-66
2022/05/08 07:10:55;;;;;;;3.47;2.33;;;13.00;98.00;;;;;;5013545;28;20463;-66
2022/05/08 07:13:26;;;;;;;4.77;2.70;;;13.00;98.00;;;;;;5013039;28;20457;-66
2022/05/08 07:15:53;;;;;;;3.20;1.73;;;13.10;98.00;;;;;;5013108;28;20539;-64
2022/05/08 07:18:21;;;;;;;2.33;2.13;;;13.20;98.00;;;;;;5012777;28;20579;-64
2022/05/08 07:20:48;;;;;;;3.47;2.17;;;13.30;98.00;;;;;;5012831;28;20490;-64
2022/05/08 07:23:15;;;;;;;3.47;2.63;;;13.40;98.00;;;;;;5012740;28;20516;-64
2022/05/08 07:25:42;;;;;;;4.13;2.53;;;13.60;98.00;;;;;;5012829;28;20459;-64
2022/05/08 07:28:10;;;;;;;4.43;2.40;;;13.60;98.00;;;;;;5012728;28;20455;-64
2022/05/08 07:30:38;;;;;;;3.83;3.07;;;13.70;98.00;;;;;;5012780;28;20513;-64
2022/05/08 07:33:06;;;;;;;4.47;3.03;;;13.60;98.00;;;;;;5011743;28;20461;-64
2022/05/08 07:38:21;;;;;;;4.50;2.23;;;13.30;98.00;;;;;;5012609;28;20457;-63
2022/05/08 07:40:50;;;;;;;3.23;2.60;;;13.40;98.00;;;;;;5012329;28;20484;-63
2022/05/08 07:43:18;;;;;;;2.97;2.30;;;13.60;98.00;;;;;;5012444;28;20463;-63
2022/05/08 07:45:47;;;;;;;4.40;3.30;;;13.60;98.00;;;;;;5012615;28;20592;-63
2022/05/08 07:48:16;;;;;;;2.80;2.23;;;13.60;98.00;;;;;;5012421;28;20792;-63
2022/05/08 07:50:43;;;;;;;3.27;2.10;;;13.70;98.00;;;;;;5012472;28;20460;-63
2022/05/08 07:53:10;;;;;;;3.00;2.40;;;13.80;98.00;;;;;;5012116;28;20466;-63
2022/05/08 07:55:37;;;;;;;3.77;2.53;;;14.00;98.00;;;;;;5011171;28;20469;-63
2022/05/08 07:58:04;;;;;;;3.60;2.37;;;14.20;98.00;;;;;;5012306;28;20544;-63
2022/05/08 08:00:33;;;;;;;2.87;2.20;;;14.20;98.00;;;;;;5012577;28;20462;-63
2022/05/08 08:03:01;;;;;;;3.30;2.70;;;14.30;98.00;;;;;;5012478;28;20467;-63
2022/05/08 08:05:29;;;;;;;4.07;2.57;;;14.50;98.00;;;;;;5012433;28;20464;-62
2022/05/08 08:07:56;;;;;;;4.17;3.10;;;14.50;98.00;;;;;;5012309;28;20461;-63
2022/05/08 08:10:23;;;;;;;5.20;3.33;;;14.60;98.00;;;;;;5011834;28;20482;-63
2022/05/08 08:12:52;;;;;;;3.07;2.20;;;14.80;98.00;;;;;;5012316;28;20470;-62
2022/05/08 08:15:23;;;;;;;5.20;3.00;;;14.80;98.00;;;;;;5009754;28;20465;-63
2022/05/08 08:17:51;;;;;;;4.40;3.03;;;15.00;98.00;;;;;;5009724;28;20456;-63
2022/05/08 08:20:20;;;;;;;2.20;1.90;;;15.20;98.00;;;;;;5009638;28;20811;-62
2022/05/08 08:22:47;;;;;;;5.03;3.40;;;15.20;98.00;;;;;;5009239;28;20508;-62
2022/05/08 08:25:15;;;;;;;4.47;2.60;;;15.20;98.00;;;;;;5009420;28;20843;-63
2022/05/08 08:27:42;;;;;;;2.90;2.20;;;15.30;98.00;;;;;;5009525;28;20837;-62
2022/05/08 08:30:15;;;;;;;5.33;3.00;;;15.30;98.00;;;;;;5009069;28;20620;-62
2022/05/08 08:32:43;;;;;;;3.13;2.80;;;15.40;98.00;;;;;;5007982;28;20474;-62
2022/05/08 08:35:13;;;;;;;5.70;2.50;;;15.60;98.00;;;;;;5009195;28;20469;-62
2022/05/08 08:37:42;;;;;;;4.37;2.70;;;15.60;98.00;;;;;;5009237;28;20473;-63
2022/05/08 08:40:12;;;;;;;3.63;2.80;;;15.60;98.00;;;;;;5009416;28;20529;-62
2022/05/08 08:42:42;;;;;;;3.77;2.40;;;15.50;98.00;;;;;;5007841;28;20568;-63
2022/05/08 08:47:57;;;;;;;4.10;2.47;;;15.60;98.00;;;;;;5008585;28;20472;-63
2022/05/08 08:50:26;;;;;;;5.50;2.90;;;15.60;98.00;;;;;;5006772;28;20541;-63
2022/05/08 08:52:58;;;;;;;5.33;2.97;;;15.60;98.00;;;;;;5009085;28;20460;-66
2022/05/08 08:55:26;;;;;;;6.00;2.40;;;15.90;98.00;;;;;;5009193;28;20946;-63
2022/05/08 08:57:53;;;;;;;3.47;2.70;;;15.90;98.00;;;;;;5009309;28;20523;-63
2022/05/08 09:00:21;;;;;;;3.70;2.20;;;16.00;98.00;;;;;;5009272;28;20503;-63
2022/05/08 09:02:50;;;;;;;3.77;2.43;;;16.10;98.00;;;;;;5009151;28;20499;-63
2022/05/08 09:05:17;;;;;;;4.23;2.70;;;16.20;98.00;;;;;;5009047;28;20551;-63
2022/05/08 09:07:46;;;;;;;3.23;2.80;;;16.20;98.00;;;;;;5009282;28;20486;-63
2022/05/08 09:10:17;;;;;;;8.50;3.40;;;16.20;98.00;;;;;;5009019;28;21112;-62
2022/05/08 09:13:01;;;;;;;4.80;2.73;;;16.20;98.00;;;;;;5009421;28;20517;-63
2022/05/08 09:15:30;;;;;;;3.60;2.50;;;16.30;98.00;;;;;;5008007;28;20549;-64
2022/05/08 09:17:58;;;;;;;3.60;2.53;;;16.50;98.00;;;;;;5008870;28;20517;-63
2022/05/08 09:20:34;;;;;;;4.27;2.70;;;16.70;98.00;;;;;;5001069;28;20467;-64
2022/05/08 09:23:06;;;;;;;4.83;2.90;;;16.70;98.00;;;;;;5004985;28;20504;-61
2022/05/08 09:26:03;;;;;;;5.00;2.50;;;16.90;98.00;;;;;;5012242;28;20486;-61
2022/05/08 09:28:33;;;;;;;3.80;2.53;;;17.00;98.00;;;;;;4988752;28;20558;-61
2022/05/08 09:31:06;;;;;;;5.20;2.87;;;17.00;98.00;;;;;;5012271;28;20455;-61
2022/05/08 09:33:35;;;;;;;3.93;2.10;;;17.20;98.00;;;;;;5012196;28;20459;-61
2022/05/08 09:36:07;;;;;;;5.97;3.23;;;17.30;98.00;;;;;;5012262;28;20954;-61
2022/05/08 09:38:48;;;;;;;3.90;3.13;;;17.30;98.00;;;;;;5012231;28;20458;-61
2022/05/08 09:41:19;;;;;;;5.83;3.60;;;17.40;98.00;;;;;;5011777;28;20944;-61
2022/05/08 09:43:47;;;;;;;4.20;3.00;;;17.50;98.00;;;;;;5012252;28;20459;-63
2022/05/08 09:46:14;;;;;;;4.53;2.60;;;17.50;98.00;;;;;;5011739;28;20934;-63
2022/05/08 09:48:42;;;;;;;4.83;2.50;;;17.50;98.00;;;;;;5012171;28;20455;-61
2022/05/08 09:51:11;;;;;;;5.20;2.20;;;17.70;98.00;;;;;;5008496;28;20456;-61
2022/05/08 09:53:39;;;;;;;4.20;2.37;;;17.90;98.00;;;;;;5012161;28;20938;-61
2022/05/08 09:56:08;;;;;;;3.03;2.07;;;18.00;98.00;;;;;;5011829;28;20977;-62
2022/05/08 09:58:38;;;;;;;4.63;2.50;;;18.30;98.00;;;;;;5012202;28;20475;-62
2022/05/08 10:01:07;;;;;;;4.73;2.53;;;18.30;98.00;;;;;;5011561;28;20465;-62
2022/05/08 10:03:34;;;;;;;4.73;2.90;;;18.40;98.00;;;;;;5011636;28;20523;-62
2022/05/08 10:06:02;;;;;;;3.93;2.30;;;18.50;98.00;;;;;;5011949;28;20467;-63
2022/05/08 10:08:31;;;;;;;3.03;2.47;;;18.50;98.00;;;;;;5011774;28;20463;-62
2022/05/08 10:14:07;;;;;;;3.73;2.50;;;18.80;98.00;;;;;;5011839;28;20839;-62
2022/05/08 10:16:55;;;;;;;4.67;3.10;;;18.90;98.00;;;;;;5010367;28;20895;-61
2022/05/08 10:20:00;;;;;;;3.80;2.60;;;18.90;98.00;;;;;;5011145;28;20456;-61
2022/05/08 10:22:48;;;;;;;4.97;2.90;;;18.90;98.00;;;;;;5011377;28;21025;-62
2022/05/08 10:25:17;;;;;;;5.73;2.67;;;19.00;98.00;;;;;;5012383;28;20462;-61
2022/05/08 10:28:06;;;;;;;4.43;2.63;;;19.20;98.00;;;;;;5013821;28;20808;-61
2022/05/08 10:30:35;;;;;;;2.63;2.17;;;19.30;98.00;;;;;;5013621;28;20492;-61
2022/05/08 10:33:02;;;;;;;5.00;2.77;;;19.50;98.00;;;;;;5013116;28;20594;-61
2022/05/08 10:35:31;;;;;;;8.23;3.40;;;19.50;98.00;;;;;;5013565;28;20518;-61
2022/05/08 10:38:23;;;;;;;5.17;2.70;;;19.70;98.00;;;;;;5013701;28;20558;-61
2022/05/08 10:40:50;;;;;;;2.60;2.17;;;19.90;98.00;;;;;;5003587;28;20463;-62
2022/05/08 10:43:28;;;;;;;3.30;2.60;;;19.90;98.00;;;;;;5013244;28;20486;-62
2022/05/08 10:46:18;;;;;;;3.40;2.33;;;20.00;98.00;;;;;;5012799;28;20483;-62
2022/05/08 10:48:46;;;;;;;2.67;1.97;;;20.10;98.00;;;;;;5012611;28;20490;-62
2022/05/08 10:51:14;;;;;;;3.20;2.10;;;20.10;98.00;;;;;;5012612;28;20471;-62
2022/05/08 10:53:43;;;;;;;3.20;2.23;;;20.20;96.60;;;;;;5013096;28;20451;-62
2022/05/08 10:56:11;;;;;;;3.00;2.17;;;20.30;95.30;;;;;;5012574;28;20455;-62
2022/05/08 10:58:41;;;;;;;2.50;2.00;;;20.40;95.80;;;;;;5012402;28;20490;-62
2022/05/08 11:01:10;;;;;;;3.70;2.40;;;20.40;95.60;;;;;;5012400;28;20456;-62
2022/05/08 11:03:37;;;;;;;4.20;2.43;;;20.50;95.80;;;;;;5012083;28;20666;-62
2022/05/08 11:06:07;;;;;;;2.37;1.63;;;20.60;94.10;;;;;;5012297;28;20466;-62
2022/05/08 11:08:36;;;;;;;3.90;2.20;;;20.70;93.40;;;;;;5012445;28;20460;-61
2022/05/08 11:11:07;;;;;;;3.33;2.07;;;20.80;93.00;;;;;;5012404;28;20467;-62
2022/05/08 11:13:46;;;;;;;4.27;2.40;;;20.90;94.10;;;;;;5012572;28;20459;-61
2022/05/08 11:16:15;;;;;;;3.73;2.00;;;21.10;93.20;;;;;;5012413;28;20867;-62
2022/05/08 11:18:43;;;;;;;3.10;2.27;;;21.10;92.10;;;;;;5012505;28;20483;-61
2022/05/08 11:21:16;;;;;;;2.73;2.60;;;21.30;90.40;;;;;;5012325;28;20487;-61
2022/05/08 11:23:44;;;;;;;3.63;2.30;;;21.50;91.10;;;;;;5012217;28;20491;-62
2022/05/08 11:26:12;;;;;;;3.27;2.20;;;21.60;90.30;;;;;;5012332;28;20462;-62
2022/05/08 11:28:50;;;;;;;4.23;2.53;;;21.90;89.60;;;;;;5011759;28;20462;-62
2022/05/08 11:31:19;;;;;;;3.30;2.27;;;22.10;89.00;;;;;;5011900;28;20744;-62
2022/05/08 11:36:34;;;;;;;4.30;2.47;;;22.80;88.30;;;;;;5012100;28;20517;-62
2022/05/08 11:39:03;;;;;;;5.13;3.17;;;23.20;89.00;;;;;;5011994;28;20464;-62
2022/05/08 11:41:35;;;;;;;3.17;2.00;;;23.50;86.10;;;;;;5011793;28;20563;-62
2022/05/08 11:44:03;;;;;;;3.33;2.47;;;23.60;85.30;;;;;;5011244;28;20686;-62
2022/05/08 11:46:36;;;;;;;4.50;2.57;;;23.60;85.00;;;;;;5010277;28;20467;-62
2022/05/08 11:49:13;;;;;;;2.20;1.80;;;23.70;85.60;;;;;;5010997;28;20497;-62
2022/05/08 11:51:45;;;;;;;4.13;2.30;;;23.80;85.00;;;;;;5011883;28;20494;-62
2022/05/08 11:54:24;;;;;;;4.10;2.50;;;23.70;85.70;;;;;;5011711;28;21024;-62
2022/05/08 11:57:09;;;;;;;3.53;2.50;;;23.80;84.40;;;;;;5012336;28;20455;-62
2022/05/08 11:59:37;;;;;;;3.10;2.30;;;24.00;85.90;;;;;;5011553;28;20465;-62
2022/05/08 12:02:04;;;;;;;4.27;2.50;;;24.00;85.20;;;;;;5011556;28;20463;-62
2022/05/08 12:04:33;;;;;;;3.70;2.20;;;24.10;83.90;;;;;;5011512;28;20456;-61
2022/05/08 12:07:05;;;;;;;4.00;2.67;;;24.20;82.30;;;;;;5011647;28;20459;-62
2022/05/08 12:09:41;;;;;;;4.40;2.57;;;24.30;83.90;;;;;;5011396;28;20968;-62
2022/05/08 12:12:22;;;;;;;4.43;2.70;;;24.30;83.00;;;;;;5011935;28;20462;-62
2022/05/08 12:14:50;;;;;;;3.60;2.40;;;24.40;83.80;;;;;;5010201;28;20455;-62
2022/05/08 12:17:17;;;;;;;4.50;2.60;;;24.50;82.80;;;;;;5011890;28;20459;-62
2022/05/08 12:19:52;;;;;;;5.00;3.30;;;24.50;82.40;;;;;;5011671;28;20456;-62
2022/05/08 12:22:22;;;;;;;3.40;2.40;;;24.60;83.30;;;;;;5010068;28;20681;-62
2022/05/08 12:24:49;;;;;;;3.20;2.37;;;24.70;82.90;;;;;;5011507;28;21007;-62
2022/05/08 12:27:16;;;;;;;2.53;2.13;;;24.90;81.90;;;;;;5011323;28;20459;-62
2022/05/08 12:29:46;;;;;;;2.80;2.20;;;24.90;82.20;;;;;;5011392;28;20472;-62
2022/05/08 12:32:14;;;;;;;5.23;2.63;;;24.70;81.60;;;;;;5011408;28;21000;-62
2022/05/08 12:34:42;;;;;;;2.90;2.40;;;24.60;82.80;;;;;;5011229;28;20874;-62
2022/05/08 12:37:10;;;;;;;4.97;2.50;;;24.50;81.20;;;;;;5011264;28;20458;-62
2022/05/08 12:39:39;;;;;;;5.13;2.73;;;24.40;81.90;;;;;;5011141;28;20455;-62
2022/05/08 12:42:09;;;;;;;3.00;2.73;;;24.40;82.70;;;;;;5011210;28;20470;-62
2022/05/08 12:44:38;;;;;;;4.00;2.57;;;24.60;82.00;;;;;;5011048;28;20451;-61
2022/05/08 12:47:08;;;;;;;4.30;2.60;;;24.70;81.10;;;;;;5012105;28;20463;-62
2022/05/08 12:49:37;;;;;;;4.67;2.60;;;24.90;80.00;;;;;;5011889;28;20542;-62
2022/05/08 12:52:06;;;;;;;5.73;3.13;;;25.00;80.60;;;;;;5011979;28;20458;-62
2022/05/08 12:54:33;;;;;;;4.40;2.70;;;25.10;80.60;;;;;;5012154;28;20868;-62
2022/05/08 12:57:06;;;;;;;3.60;2.50;;;25.00;80.50;;;;;;5014625;28;20467;-61
2022/05/08 12:59:47;;;;;;;4.60;2.80;;;24.70;80.90;;;;;;5015476;28;20546;-62
2022/05/08 13:02:15;;;;;;;2.30;2.10;;;24.30;81.00;;;;;;5015420;28;20546;-61
2022/05/08 13:04:43;;;;;;;3.87;2.60;;;24.10;82.40;;;;;;5015627;28;20471;-61
2022/05/08 13:07:11;;;;;;;3.83;2.80;;;24.10;83.20;;;;;;5014502;28;20467;-61
2022/05/08 13:09:39;;;;;;;3.97;2.90;;;23.80;83.00;;;;;;5015482;28;20827;-61
2022/05/08 13:12:09;;;;;;;4.23;2.90;;;23.50;83.10;;;;;;5012723;28;20807;-62
2022/05/08 13:14:36;;;;;;;3.63;2.30;;;23.20;82.60;;;;;;5015517;28;20534;-61
2022/05/08 13:17:05;;;;;;;3.70;2.33;;;22.90;83.70;;;;;;5015379;28;20455;-61
2022/05/08 13:19:33;;;;;;;3.00;2.20;;;22.60;83.20;;;;;;5015165;28;20467;-61
2022/05/08 13:22:01;;;;;;;3.53;2.00;;;22.30;84.00;;;;;;5015100;28;20487;-62
2022/05/08 13:24:31;;;;;;;3.63;2.37;;;22.30;85.00;;;;;;5014291;28;20918;-62
2022/05/08 13:26:59;;;;;;;4.90;2.00;;;22.20;85.40;;;;;;5013775;28;20459;-62